createdAt,value
2019-04-26T00:00:45.783Z,1.37
2019-04-26T00:03:16.248Z,1.00
2019-04-26T00:05:44.945Z,1.10
2019-04-26T00:08:13.901Z,1.30
2019-04-26T00:10:44.148Z,1.00
2019-04-26T00:13:18.314Z,1.87
2019-04-26T00:15:48.760Z,3.77
2019-04-26T00:18:17.513Z,0.90
2019-04-26T00:20:48.951Z,1.63
2019-04-26T00:23:18.284Z,1.07
2019-04-26T00:25:47.020Z,1.40
2019-04-26T00:28:15.499Z,1.40
2019-04-26T00:30:43.956Z,1.00
2019-04-26T00:33:13.503Z,1.20
2019-04-26T00:35:47.747Z,4.83
2019-04-26T00:38:13.246Z,1.17
2019-04-26T00:40:43.851Z,1.17
2019-04-26T00:43:12.857Z,1.30
2019-04-26T00:45:41.585Z,2.40
2019-04-26T00:48:12.532Z,2.67
2019-04-26T00:50:42.999Z,2.37
2019-04-26T00:53:13.319Z,1.40
2019-04-26T00:55:43.351Z,1.97
2019-04-26T00:58:12.461Z,2.00
2019-04-26T01:00:41.070Z,2.00
2019-04-26T01:03:09.545Z,1.33
2019-04-26T01:05:39.748Z,1.40
2019-04-26T01:08:08.329Z,1.20
2019-04-26T01:10:36.963Z,2.37
2019-04-26T01:13:05.526Z,1.70
2019-04-26T01:15:33.979Z,1.60
2019-04-26T01:18:02.463Z,1.63
2019-04-26T01:20:32.779Z,2.67
2019-04-26T01:23:04.710Z,1.50
2019-04-26T01:25:42.497Z,1.50
2019-04-26T01:28:14.068Z,2.47
2019-04-26T01:30:44.357Z,2.10
2019-04-26T01:33:13.484Z,2.80
2019-04-26T01:35:42.414Z,4.80
2019-04-26T01:38:13.944Z,6.70
2019-04-26T01:40:44.123Z,5.80
2019-04-26T01:43:24.417Z,4.50
2019-04-26T01:46:00.557Z,4.20
2019-04-26T01:48:50.275Z,3.17
2019-04-26T01:51:22.776Z,2.30
2019-04-26T01:53:52.578Z,3.57
2019-04-26T01:56:25.078Z,2.90
2019-04-26T01:58:54.514Z,3.27
2019-04-26T02:01:25.374Z,3.53
2019-04-26T02:03:54.183Z,4.30
2019-04-26T02:06:29.096Z,4.73
2019-04-26T02:08:53.727Z,3.20
2019-04-26T02:11:23.517Z,5.20
2019-04-26T02:13:52.227Z,3.03
2019-04-26T02:16:20.785Z,3.80
2019-04-26T02:18:49.307Z,2.97
2019-04-26T02:21:28.273Z,2.87
2019-04-26T02:24:16.415Z,1.93
2019-04-26T02:26:46.940Z,2.00
2019-04-26T02:29:18.485Z,2.67
2019-04-26T02:31:50.039Z,2.13
2019-04-26T02:34:18.570Z,1.87
2019-04-26T02:36:58.086Z,1.90
2019-04-26T02:39:20.273Z,1.90
2019-04-26T02:41:51.685Z,2.03
2019-04-26T02:44:24.028Z,1.83
2019-04-26T02:47:16.382Z,1.90
2019-04-26T02:49:49.397Z,2.00
2019-04-26T02:52:23.578Z,1.90
2019-04-26T02:55:15.153Z,2.07
2019-04-26T02:57:52.637Z,2.13
2019-04-26T03:00:21.097Z,1.90
2019-04-26T03:02:55.543Z,2.33
2019-04-26T03:05:24.831Z,1.70
2019-04-26T03:07:59.197Z,1.90
2019-04-26T03:10:32.640Z,2.23
2019-04-26T03:13:04.709Z,1.83
2019-04-26T03:15:43.808Z,2.10
2019-04-26T03:18:35.242Z,2.10
2019-04-26T03:21:37.765Z,2.40
2019-04-26T03:24:18.621Z,2.27
2019-04-26T03:26:50.218Z,3.63
2019-04-26T03:29:24.456Z,3.43
2019-04-26T03:32:05.119Z,2.17
2019-04-26T03:34:53.669Z,2.33
2019-04-26T03:37:21.947Z,2.50
2019-04-26T03:39:57.949Z,2.60
2019-04-26T03:42:29.525Z,2.73
2019-04-26T03:45:09.844Z,2.80
2019-04-26T03:47:47.214Z,2.70
2019-04-26T03:50:18.797Z,2.60
2019-04-26T03:53:15.215Z,2.33
2019-04-26T03:55:51.043Z,2.20
2019-04-26T03:58:26.957Z,2.60
2019-04-26T04:00:58.872Z,2.53
2019-04-26T04:03:53.237Z,2.20
2019-04-26T04:06:26.769Z,2.50
2019-04-26T04:08:58.325Z,3.00
2019-04-26T04:11:37.508Z,3.23
2019-04-26T04:14:28.627Z,3.07
2019-04-26T04:17:04.824Z,2.93
2019-04-26T04:19:55.702Z,2.77
2019-04-26T04:22:27.240Z,3.40
2019-04-26T04:24:58.809Z,3.67
2019-04-26T04:27:30.332Z,3.57
2019-04-26T04:30:07.629Z,4.07
2019-04-26T04:32:59.059Z,3.00
2019-04-26T04:35:30.623Z,5.73
2019-04-26T04:38:19.093Z,3.83
2019-04-26T04:41:10.179Z,6.00
2019-04-26T04:43:44.357Z,4.20
2019-04-26T04:46:31.886Z,4.13
2019-04-26T04:49:23.489Z,3.23
2019-04-26T04:52:07.118Z,3.40
2019-04-26T04:55:13.930Z,3.00
2019-04-26T04:57:52.386Z,3.23
2019-04-26T05:00:40.361Z,3.00
2019-04-26T05:03:28.184Z,3.53
2019-04-26T05:06:15.705Z,3.70
2019-04-26T05:08:51.196Z,3.83
2019-04-26T05:11:23.198Z,7.83
2019-04-26T05:13:54.769Z,9.30
2019-04-26T05:16:39.979Z,6.90
2019-04-26T05:19:44.211Z,5.17
2019-04-26T05:22:26.186Z,4.40
2019-04-26T05:25:17.556Z,2.70
2019-04-26T05:27:57.191Z,4.23
2019-04-26T05:31:11.762Z,3.20
2019-04-26T05:34:03.134Z,7.50
2019-04-26T05:36:43.821Z,3.47
2019-04-26T05:39:27.477Z,3.57
2019-04-26T05:42:03.244Z,4.00
2019-04-26T05:45:09.753Z,3.77
2019-04-26T05:48:11.594Z,4.30
2019-04-26T05:51:05.026Z,3.63
2019-04-26T05:54:12.222Z,3.83
2019-04-26T05:57:09.442Z,4.77
2019-04-26T05:59:58.895Z,3.07
2019-04-26T06:03:09.589Z,3.47
2019-04-26T06:05:54.448Z,2.73
2019-04-26T06:09:03.475Z,3.50
2019-04-26T06:11:54.739Z,3.20
2019-04-26T06:14:33.783Z,3.67
2019-04-26T06:17:16.036Z,2.80
2019-04-26T06:20:04.211Z,3.40
2019-04-26T06:22:38.295Z,2.67
2019-04-26T06:25:17.252Z,4.77
2019-04-26T06:27:50.455Z,3.10
2019-04-26T06:30:23.059Z,3.20
2019-04-26T06:33:12.335Z,3.20
2019-04-26T06:35:44.972Z,3.27
2019-04-26T06:38:43.456Z,3.77
2019-04-26T06:41:26.196Z,2.83
2019-04-26T06:44:08.031Z,2.60
2019-04-26T06:46:57.642Z,2.57
2019-04-26T06:50:05.502Z,3.07
2019-04-26T06:52:37.236Z,2.40
2019-04-26T06:55:16.517Z,3.73
2019-04-26T06:58:04.927Z,2.67
2019-04-26T07:00:47.363Z,2.60
2019-04-26T07:03:27.780Z,4.23
2019-04-26T07:06:00.399Z,3.10
2019-04-26T07:08:56.445Z,2.33
2019-04-26T07:11:24.375Z,4.37
2019-04-26T07:14:04.922Z,3.03
2019-04-26T07:16:52.932Z,2.83
2019-04-26T07:19:59.643Z,4.17
2019-04-26T07:22:41.248Z,2.37
2019-04-26T07:25:29.323Z,3.33
2019-04-26T07:28:47.596Z,2.93
2019-04-26T07:31:30.934Z,3.33
2019-04-26T07:34:25.547Z,2.87
2019-04-26T07:37:16.449Z,2.20
2019-04-26T07:40:07.618Z,4.07
2019-04-26T07:43:08.161Z,3.43
2019-04-26T07:46:05.872Z,2.50
2019-04-26T07:48:54.044Z,3.90
2019-04-26T07:51:28.298Z,3.73
2019-04-26T07:54:06.706Z,3.03
2019-04-26T07:56:50.557Z,4.33
2019-04-26T07:59:41.811Z,2.30
2019-04-26T08:02:17.560Z,2.43
2019-04-26T08:04:49.197Z,3.10
2019-04-26T08:07:23.989Z,3.10
2019-04-26T08:09:59.983Z,3.47
2019-04-26T08:12:28.787Z,3.30
2019-04-26T08:15:11.367Z,3.83
2019-04-26T08:17:56.651Z,4.07
2019-04-26T08:20:33.118Z,4.17
2019-04-26T08:23:09.119Z,5.63
2019-04-26T08:25:38.751Z,7.70
2019-04-26T08:28:10.449Z,5.47
2019-04-26T08:30:44.765Z,7.20
2019-04-26T08:33:14.799Z,6.70
2019-04-26T08:35:48.981Z,4.00
2019-04-26T08:38:22.074Z,6.63
2019-04-26T08:40:47.971Z,5.07
2019-04-26T08:43:20.983Z,6.60
2019-04-26T08:46:02.898Z,6.67
2019-04-26T08:48:34.923Z,9.27
2019-04-26T08:51:06.569Z,7.93
2019-04-26T08:53:38.128Z,6.47
2019-04-26T08:56:11.636Z,5.07
2019-04-26T08:58:41.796Z,2.40
2019-04-26T09:01:17.574Z,2.03
2019-04-26T09:03:53.648Z,3.07
2019-04-26T09:06:26.251Z,1.50
2019-04-26T09:08:57.162Z,2.80
2019-04-26T09:11:33.376Z,1.70
2019-04-26T09:14:01.169Z,1.93
2019-04-26T09:16:29.771Z,1.60
2019-04-26T09:18:59.691Z,1.47
2019-04-26T09:21:39.249Z,1.30
2019-04-26T09:24:09.356Z,1.30
2019-04-26T09:26:46.275Z,1.20
2019-04-26T09:29:14.203Z,1.17
2019-04-26T09:31:44.296Z,1.47
2019-04-26T09:34:18.223Z,0.97
2019-04-26T09:36:46.768Z,1.77
2019-04-26T09:39:15.983Z,0.90
2019-04-26T09:41:44.458Z,2.47
2019-04-26T09:44:23.685Z,1.90
2019-04-26T09:47:12.242Z,1.73
2019-04-26T09:49:42.739Z,1.40
2019-04-26T09:52:22.428Z,1.80
2019-04-26T09:54:50.897Z,3.17
2019-04-26T09:57:19.364Z,2.70
2019-04-26T09:59:47.899Z,2.23
2019-04-26T10:02:16.768Z,2.43
2019-04-26T10:04:45.243Z,2.60
2019-04-26T10:07:13.757Z,4.80
2019-04-26T10:09:42.247Z,2.20
2019-04-26T10:12:12.403Z,2.10
2019-04-26T10:15:01.123Z,2.60
2019-04-26T10:17:31.297Z,1.57
2019-04-26T10:19:59.785Z,1.50
2019-04-26T10:22:29.866Z,2.10
2019-04-26T10:25:02.545Z,1.30
2019-04-26T10:27:28.886Z,1.00
2019-04-26T10:30:07.402Z,0.90
2019-04-26T10:32:27.956Z,1.20
2019-04-26T10:34:56.555Z,0.90
2019-04-26T10:37:25.000Z,1.07
2019-04-26T10:39:53.713Z,0.90
2019-04-26T10:42:23.174Z,1.07
2019-04-26T10:44:51.641Z,0.80
2019-04-26T10:47:20.521Z,0.80
2019-04-26T10:49:49.540Z,0.80
2019-04-26T10:52:22.511Z,1.10
2019-04-26T10:54:52.595Z,0.80
2019-04-26T10:57:23.042Z,0.93
2019-04-26T10:59:55.915Z,1.20
2019-04-26T11:02:24.512Z,1.17
2019-04-26T11:04:52.962Z,1.47
2019-04-26T11:07:21.507Z,1.50
2019-04-26T11:09:50.060Z,1.30
2019-04-26T11:12:18.869Z,1.17
2019-04-26T11:14:47.629Z,2.77
2019-04-26T11:17:17.792Z,2.93
2019-04-26T11:19:46.513Z,3.50
2019-04-26T11:22:15.111Z,4.03
2019-04-26T11:24:43.585Z,2.63
2019-04-26T11:27:12.106Z,4.03
2019-04-26T11:29:40.759Z,3.23
2019-04-26T11:32:09.503Z,3.03
2019-04-26T11:34:37.966Z,2.50
2019-04-26T11:37:06.573Z,2.57
2019-04-26T11:39:36.542Z,1.40
2019-04-26T11:42:07.980Z,1.17
2019-04-26T11:44:35.479Z,1.90
2019-04-26T11:47:07.520Z,2.33
2019-04-26T11:49:37.398Z,2.27
2019-04-26T11:52:04.902Z,2.77
2019-04-26T11:54:33.364Z,2.23
2019-04-26T11:57:01.855Z,2.07
2019-04-26T11:59:31.660Z,2.27
2019-04-26T12:02:00.429Z,1.53
2019-04-26T12:04:49.623Z,1.30
2019-04-26T12:07:20.598Z,1.50
2019-04-26T12:09:50.701Z,1.27
2019-04-26T12:12:19.159Z,1.50
2019-04-26T12:14:47.976Z,1.67
2019-04-26T12:17:16.513Z,1.40
2019-04-26T12:19:48.167Z,1.33
2019-04-26T12:22:15.187Z,2.30
2019-04-26T12:24:43.652Z,2.20
2019-04-26T12:27:12.165Z,1.17
2019-04-26T12:29:44.159Z,1.60
2019-04-26T12:32:11.191Z,1.30
2019-04-26T12:34:39.670Z,1.40
2019-04-26T12:37:08.136Z,1.13
2019-04-26T12:39:38.162Z,1.40
2019-04-26T12:42:08.185Z,1.30
2019-04-26T12:44:54.911Z,2.33
2019-04-26T12:47:41.299Z,1.60
2019-04-26T12:50:09.899Z,11.30
2019-04-26T12:52:38.379Z,4.77
2019-04-26T12:55:07.017Z,4.07
2019-04-26T12:57:36.465Z,3.67
2019-04-26T13:00:06.802Z,2.10
2019-04-26T13:02:35.284Z,1.77
2019-04-26T13:05:04.355Z,1.63
2019-04-26T13:07:32.839Z,1.70
2019-04-26T13:10:14.926Z,2.20
2019-04-26T13:12:51.043Z,1.90
2019-04-26T13:15:50.465Z,2.23
2019-04-26T13:18:20.327Z,3.37
2019-04-26T13:20:48.871Z,3.50
2019-04-26T13:23:17.362Z,2.97
2019-04-26T13:25:46.054Z,4.40
2019-04-26T13:28:15.702Z,5.50
2019-04-26T13:30:44.921Z,1.93
2019-04-26T13:33:13.581Z,1.63
2019-04-26T13:35:46.729Z,2.63
2019-04-26T13:38:12.919Z,2.10
2019-04-26T13:40:41.668Z,1.53
2019-04-26T13:43:10.233Z,4.50
2019-04-26T13:45:58.942Z,5.50
2019-04-26T13:48:29.052Z,3.83
2019-04-26T13:51:01.354Z,12.53
2019-04-26T13:53:29.713Z,7.50
2019-04-26T13:56:01.500Z,7.00
2019-04-26T13:58:28.356Z,2.30
2019-04-26T14:00:57.309Z,2.10
2019-04-26T14:03:27.258Z,2.67
2019-04-26T14:05:55.999Z,2.77
2019-04-26T14:08:24.494Z,2.30
2019-04-26T14:10:53.042Z,2.37
2019-04-26T14:13:24.965Z,2.10
2019-04-26T14:15:52.086Z,2.20
2019-04-26T14:18:20.782Z,2.57
2019-04-26T14:20:49.262Z,1.80
2019-04-26T14:23:28.171Z,2.27
2019-04-26T14:26:07.390Z,2.77
2019-04-26T14:28:36.185Z,1.90
2019-04-26T14:31:04.857Z,1.97
2019-04-26T14:33:33.389Z,1.83
2019-04-26T14:36:01.885Z,2.60
2019-04-26T14:38:39.263Z,3.17
2019-04-26T14:41:04.044Z,3.43
2019-04-26T14:43:40.440Z,2.43
2019-04-26T14:46:01.606Z,2.80
2019-04-26T14:48:36.330Z,1.60
2019-04-26T14:51:07.985Z,2.00
2019-04-26T14:53:32.097Z,1.83
2019-04-26T14:56:01.125Z,1.90
2019-04-26T14:58:30.473Z,2.27
2019-04-26T15:01:04.952Z,2.40
2019-04-26T15:03:51.411Z,1.87
2019-04-26T15:06:24.842Z,1.80
2019-04-26T15:08:53.322Z,2.40
2019-04-26T15:11:22.909Z,1.67
2019-04-26T15:13:51.658Z,2.03
2019-04-26T15:16:22.197Z,2.70
2019-04-26T15:18:50.433Z,1.80
2019-04-26T15:21:19.209Z,1.90
2019-04-26T15:23:47.705Z,1.80
2019-04-26T15:26:18.404Z,1.63
2019-04-26T15:28:50.406Z,1.90
2019-04-26T15:31:21.045Z,1.40
2019-04-26T15:33:48.745Z,1.43
2019-04-26T15:36:17.770Z,1.77
2019-04-26T15:38:47.897Z,1.70
2019-04-26T15:41:18.317Z,1.70
2019-04-26T15:43:53.340Z,1.60
2019-04-26T15:46:42.554Z,1.50
2019-04-26T15:49:26.125Z,1.80
2019-04-26T15:51:56.311Z,2.40
2019-04-26T15:54:25.033Z,1.70
2019-04-26T15:56:54.031Z,1.60
2019-04-26T15:59:25.375Z,1.63
2019-04-26T16:01:56.277Z,1.70
2019-04-26T16:04:24.361Z,1.60
2019-04-26T16:06:52.806Z,1.70
2019-04-26T16:09:22.831Z,1.63
2019-04-26T16:11:53.162Z,1.47
2019-04-26T16:14:26.378Z,2.07
2019-04-26T16:16:52.554Z,2.77
2019-04-26T16:19:21.070Z,4.43
2019-04-26T16:21:52.797Z,1.70
2019-04-26T16:24:19.809Z,2.50
2019-04-26T16:26:53.565Z,2.10
2019-04-26T16:29:24.188Z,2.00
2019-04-26T16:31:54.521Z,2.03
2019-04-26T16:34:32.321Z,1.63
2019-04-26T16:37:02.931Z,1.80
2019-04-26T16:39:38.338Z,3.23
2019-04-26T16:42:04.966Z,1.57
2019-04-26T16:44:33.349Z,2.63
2019-04-26T16:47:05.337Z,2.40
2019-04-26T16:49:35.139Z,5.20
2019-04-26T16:52:06.849Z,2.03
2019-04-26T16:54:34.284Z,3.57
2019-04-26T16:57:06.839Z,2.80
2019-04-26T16:59:32.935Z,1.87
2019-04-26T17:02:02.790Z,1.77
2019-04-26T17:04:35.143Z,2.20
2019-04-26T17:07:02.844Z,4.20
2019-04-26T17:09:54.449Z,1.60
2019-04-26T17:12:02.536Z,2.00
2019-04-26T17:14:33.930Z,2.50
2019-04-26T17:17:03.203Z,3.13
2019-04-26T17:19:35.839Z,3.00
2019-04-26T17:22:03.837Z,3.40
2019-04-26T17:24:48.871Z,3.10
2019-04-26T17:27:19.321Z,2.80
2019-04-26T17:29:47.804Z,4.67
2019-04-26T17:32:17.446Z,5.07
2019-04-26T17:34:46.092Z,3.13
2019-04-26T17:37:17.244Z,5.07
2019-04-26T17:39:47.517Z,3.87
2019-04-26T17:42:15.285Z,2.30
2019-04-26T17:44:43.738Z,2.50
2019-04-26T17:47:12.219Z,2.93
2019-04-26T17:49:43.763Z,2.30
2019-04-26T17:52:11.622Z,4.30
2019-04-26T17:54:46.702Z,2.70
2019-04-26T17:57:14.473Z,4.37
2019-04-26T17:59:45.219Z,3.37
2019-04-26T18:02:24.154Z,4.73
2019-04-26T18:04:43.035Z,2.93
2019-04-26T18:07:36.308Z,3.23
2019-04-26T18:09:46.547Z,5.13
2019-04-26T18:12:11.932Z,3.87
2019-04-26T18:14:40.583Z,3.70
2019-04-26T18:17:10.688Z,3.27
2019-04-26T18:19:40.799Z,4.20
2019-04-26T18:22:14.674Z,2.40
2019-04-26T18:24:43.661Z,2.50
2019-04-26T18:27:12.105Z,3.07
2019-04-26T18:29:40.605Z,2.23
2019-04-26T18:32:09.398Z,2.90
2019-04-26T18:34:40.547Z,3.30
2019-04-26T18:37:08.120Z,2.77
2019-04-26T18:39:36.901Z,4.63
2019-04-26T18:42:06.061Z,3.67
2019-04-26T18:44:38.504Z,5.23
2019-04-26T18:47:06.971Z,3.17
2019-04-26T18:49:35.425Z,2.70
2019-04-26T18:52:04.337Z,2.60
2019-04-26T18:54:34.641Z,3.50
2019-04-26T18:57:03.418Z,2.73
2019-04-26T18:59:31.887Z,2.50
2019-04-26T19:02:00.342Z,2.60
2019-04-26T19:04:28.857Z,3.17
2019-04-26T19:06:57.418Z,2.73
2019-04-26T19:09:26.736Z,2.57
2019-04-26T19:11:56.169Z,2.43
2019-04-26T19:14:49.135Z,3.03
2019-04-26T19:17:30.430Z,3.77
2019-04-26T19:20:07.125Z,3.13
2019-04-26T19:22:35.634Z,3.30
2019-04-26T19:25:04.854Z,3.80
2019-04-26T19:27:33.366Z,2.67
2019-04-26T19:30:04.330Z,3.03
2019-04-26T19:32:35.379Z,2.70
2019-04-26T19:35:07.096Z,2.37
2019-04-26T19:37:36.728Z,2.23
2019-04-26T19:40:09.042Z,2.30
2019-04-26T19:42:34.525Z,2.70
2019-04-26T19:45:14.000Z,4.53
2019-04-26T19:47:47.463Z,2.70
2019-04-26T19:50:17.623Z,2.67
2019-04-26T19:52:51.731Z,3.03
2019-04-26T19:55:22.573Z,2.63
2019-04-26T19:57:53.797Z,2.93
2019-04-26T20:00:22.413Z,2.53
2019-04-26T20:02:52.350Z,3.20
2019-04-26T20:05:22.518Z,3.03
2019-04-26T20:07:51.853Z,2.70
2019-04-26T20:10:20.808Z,2.87
2019-04-26T20:12:49.351Z,2.83
2019-04-26T20:15:25.837Z,3.13
2019-04-26T20:17:52.824Z,4.00
2019-04-26T20:20:21.449Z,3.10
2019-04-26T20:22:48.749Z,3.17
2019-04-26T20:25:17.292Z,3.93
2019-04-26T20:27:45.753Z,3.63
2019-04-26T20:30:24.457Z,3.27
2019-04-26T20:32:52.496Z,3.57
2019-04-26T20:35:26.541Z,3.17
2019-04-26T20:37:52.257Z,3.40
2019-04-26T20:40:25.130Z,4.40
2019-04-26T20:42:53.282Z,2.93
2019-04-26T20:45:21.796Z,3.40
2019-04-26T20:47:52.002Z,3.03
2019-04-26T20:50:21.786Z,4.00
2019-04-26T20:52:54.035Z,2.93
2019-04-26T20:55:25.225Z,2.87
2019-04-26T20:57:51.975Z,3.00
2019-04-26T21:00:22.492Z,3.20
2019-04-26T21:02:55.946Z,3.70
2019-04-26T21:05:21.455Z,4.30
2019-04-26T21:07:51.071Z,4.70
2019-04-26T21:10:21.761Z,3.53
2019-04-26T21:12:52.119Z,3.67
2019-04-26T21:15:23.834Z,3.90
2019-04-26T21:17:51.786Z,3.53
2019-04-26T21:20:21.545Z,4.47
2019-04-26T21:22:50.320Z,3.20
2019-04-26T21:25:21.563Z,4.20
2019-04-26T21:27:54.695Z,3.47
2019-04-26T21:30:24.888Z,3.73
2019-04-26T21:32:59.319Z,3.30
2019-04-26T21:35:45.798Z,3.13
2019-04-26T21:38:15.903Z,3.73
2019-04-26T21:40:46.899Z,3.47
2019-04-26T21:43:15.437Z,2.90
2019-04-26T21:45:44.087Z,3.97
2019-04-26T21:48:13.827Z,3.13
2019-04-26T21:50:42.377Z,2.90
2019-04-26T21:53:10.904Z,3.77
2019-04-26T21:55:39.642Z,3.17
2019-04-26T21:58:08.110Z,3.40
2019-04-26T22:00:50.466Z,3.07
2019-04-26T22:03:19.025Z,3.43
2019-04-26T22:05:49.666Z,2.70
2019-04-26T22:08:24.569Z,3.03
2019-04-26T22:10:49.786Z,3.77
2019-04-26T22:13:37.317Z,3.23
2019-04-26T22:16:30.559Z,3.73
2019-04-26T22:18:56.829Z,3.30
2019-04-26T22:21:35.865Z,3.43
2019-04-26T22:24:23.921Z,3.63
2019-04-26T22:26:53.231Z,3.70
2019-04-26T22:29:22.987Z,3.07
2019-04-26T22:31:54.571Z,2.60
2019-04-26T22:34:23.458Z,3.43
2019-04-26T22:36:53.709Z,4.17
2019-04-26T22:39:23.201Z,3.67
2019-04-26T22:41:53.405Z,4.30
2019-04-26T22:44:31.341Z,3.43
2019-04-26T22:47:03.707Z,3.67
2019-04-26T22:49:35.049Z,4.37
2019-04-26T22:52:06.333Z,2.67
2019-04-26T22:54:33.560Z,3.87
2019-04-26T22:57:03.793Z,2.40
2019-04-26T22:59:33.885Z,2.33
2019-04-26T23:02:03.673Z,2.47
2019-04-26T23:04:33.013Z,2.57
2019-04-26T23:07:03.407Z,4.00
2019-04-26T23:09:33.371Z,4.00
2019-04-26T23:12:03.879Z,3.13
2019-04-26T23:14:34.169Z,2.90
2019-04-26T23:17:20.572Z,4.43
2019-04-26T23:19:56.537Z,3.37
2019-04-26T23:22:26.254Z,3.53
2019-04-26T23:24:57.926Z,5.40
2019-04-26T23:27:24.109Z,4.63
2019-04-26T23:29:55.050Z,4.00
2019-04-26T23:32:23.472Z,4.10
2019-04-26T23:34:53.513Z,3.07
2019-04-26T23:37:24.244Z,2.70
2019-04-26T23:39:53.618Z,3.27
2019-04-26T23:42:23.257Z,3.20
2019-04-26T23:44:52.683Z,3.20
2019-04-26T23:47:25.110Z,5.07
2019-04-26T23:49:53.974Z,3.40
2019-04-26T23:52:24.300Z,3.73
2019-04-26T23:54:52.984Z,3.50
2019-04-26T23:57:21.595Z,3.80
2019-04-26T23:59:51.094Z,3.43
